Bradyville, Ohio
Current Conditions -  °F | °C
As of 12:55 PM on Tuesday 21 Oct 2014 (Local Time) from KFGX Reporting Station
Overcast Overcast  
Wind Chill: 53°   Ceiling: 4300
Heat Index: 53°   Visibility: 10mi
Dew Point: 39°   Wind: 9mph
Humidity: 58%   Direction: 320°NW
Pressure: 30.03"   Gusts: 20mph
Location:  38.7042°N, 83.6081°W
Report Text: KFGX 211655Z AUTO 32008G17KT 10SM SCT032 BKN043 OVC050 12/04 A3003 RMK AO2 T01190039
Loading
Personal Weather Stations






























Interactive Weather Map
Tropical Storm Tracking
New forecast layout! Learn more

10-Day Weather Forecast

Advertisements
Track Severe Weather on mobile